sensor_id;sensor_type;location;lat;lon;timestamp;pressure;altitude;pressure_sealevel;temperature;humidity
12913;BME280;6524;51.368;11.984;2023-04-10T04:02:48;101183.09;;;1.56;63.60
12913;BME280;6524;51.368;11.984;2023-04-10T04:07:51;101172.25;;;1.83;62.72
12913;BME280;6524;51.368;11.984;2023-04-10T04:12:51;101184.06;;;2.03;61.94
12913;BME280;6524;51.368;11.984;2023-04-10T04:17:51;101180.31;;;2.19;60.31
12913;BME280;6524;51.368;11.984;2023-04-10T04:22:52;101181.59;;;1.39;62.65
12913;BME280;6524;51.368;11.984;2023-04-10T04:27:52;101182.00;;;1.12;63.40
12913;BME280;6524;51.368;11.984;2023-04-10T04:32:52;101190.47;;;1.26;64.96
12913;BME280;6524;51.368;11.984;2023-04-10T04:37:53;101188.72;;;1.28;65.69
12913;BME280;6524;51.368;11.984;2023-04-10T04:42:53;101186.91;;;1.33;65.89
12913;BME280;6524;51.368;11.984;2023-04-10T04:47:53;101190.13;;;1.50;65.14
12913;BME280;6524;51.368;11.984;2023-04-10T04:52:54;101189.63;;;1.25;65.82
12913;BME280;6524;51.368;11.984;2023-04-10T04:57:54;101189.19;;;1.56;65.38
12913;BME280;6524;51.368;11.984;2023-04-10T05:02:55;101185.97;;;1.94;63.19
12913;BME280;6524;51.368;11.984;2023-04-10T05:07:55;101183.41;;;1.90;63.12
12913;BME280;6524;51.368;11.984;2023-04-10T05:12:56;101181.19;;;1.67;64.36
12913;BME280;6524;51.368;11.984;2023-04-10T05:17:56;101188.16;;;1.65;65.56
12913;BME280;6524;51.368;11.984;2023-04-10T05:22:56;101187.00;;;1.84;64.99
12913;BME280;6524;51.368;11.984;2023-04-10T05:27:57;101186.09;;;2.36;62.84
12913;BME280;6524;51.368;11.984;2023-04-10T05:32:57;101185.56;;;2.64;62.19
12913;BME280;6524;51.368;11.984;2023-04-10T05:37:58;101194.06;;;2.74;62.44
12913;BME280;6524;51.368;11.984;2023-04-10T05:42:59;101198.00;;;2.95;62.11
12913;BME280;6524;51.368;11.984;2023-04-10T05:47:59;101193.06;;;3.21;60.65
12913;BME280;6524;51.368;11.984;2023-04-10T05:53:00;101196.66;;;3.17;61.16
12913;BME280;6524;51.368;11.984;2023-04-10T05:58:00;101192.53;;;3.07;61.51
12913;BME280;6524;51.368;11.984;2023-04-10T06:03:00;101206.84;;;2.87;62.27
12913;BME280;6524;51.368;11.984;2023-04-10T06:08:02;101204.56;;;2.72;62.34
12913;BME280;6524;51.368;11.984;2023-04-10T06:13:03;101196.91;;;3.44;60.40
12913;BME280;6524;51.368;11.984;2023-04-10T06:18:03;101196.88;;;3.82;60.05
12913;BME280;6524;51.368;11.984;2023-04-10T06:23:03;101194.31;;;4.15;58.50
12913;BME280;6524;51.368;11.984;2023-04-10T06:28:04;101198.50;;;4.55;58.11
12913;BME280;6524;51.368;11.984;2023-04-10T06:33:05;101193.13;;;5.20;55.58
12913;BME280;6524;51.368;11.984;2023-04-10T06:38:06;101182.41;;;5.30;55.56
12913;BME280;6524;51.368;11.984;2023-04-10T06:43:06;101178.56;;;5.40;54.77
12913;BME280;6524;51.368;11.984;2023-04-10T06:48:07;101189.81;;;6.23;54.12
12913;BME280;6524;51.368;11.984;2023-04-10T06:53:07;101189.50;;;6.07;52.82
12913;BME280;6524;51.368;11.984;2023-04-10T06:58:07;101191.50;;;6.74;52.06
12913;BME280;6524;51.368;11.984;2023-04-10T07:03:08;101189.41;;;7.08;51.82
12913;BME280;6524;51.368;11.984;2023-04-10T07:08:08;101192.47;;;7.19;51.16
12913;BME280;6524;51.368;11.984;2023-04-10T07:13:08;101193.38;;;8.06;49.93
12913;BME280;6524;51.368;11.984;2023-04-10T07:18:09;101192.28;;;8.51;48.84
12913;BME280;6524;51.368;11.984;2023-04-10T07:23:09;101188.94;;;9.79;46.06
12913;BME280;6524;51.368;11.984;2023-04-10T07:28:10;101181.13;;;11.12;42.72
12913;BME280;6524;51.368;11.984;2023-04-10T07:33:10;101193.63;;;13.60;37.52
12913;BME280;6524;51.368;11.984;2023-04-10T07:38:11;101196.84;;;15.55;34.58
12913;BME280;6524;51.368;11.984;2023-04-10T07:43:12;101191.84;;;17.12;32.27
12913;BME280;6524;51.368;11.984;2023-04-10T07:48:12;101192.84;;;16.09;34.67
12913;BME280;6524;51.368;11.984;2023-04-10T07:53:12;101181.81;;;16.82;33.03
12913;BME280;6524;51.368;11.984;2023-04-10T07:58:13;101180.47;;;18.28;30.16
12913;BME280;6524;51.368;11.984;2023-04-10T08:03:14;101172.72;;;20.89;26.80
12913;BME280;6524;51.368;11.984;2023-04-10T08:08:15;101171.22;;;21.67;26.41
12913;BME280;6524;51.368;11.984;2023-04-10T08:13:15;101173.63;;;22.75;25.00
12913;BME280;6524;51.368;11.984;2023-04-10T08:18:16;101160.47;;;22.72;25.19
12913;BME280;6524;51.368;11.984;2023-04-10T08:23:16;101160.94;;;22.25;25.58
12913;BME280;6524;51.368;11.984;2023-04-10T08:28:16;101148.25;;;23.44;24.08
12913;BME280;6524;51.368;11.984;2023-04-10T08:33:18;101148.97;;;22.96;24.77
12913;BME280;6524;51.368;11.984;2023-04-10T08:38:19;101142.47;;;23.31;24.93
12913;BME280;6524;51.368;11.984;2023-04-10T08:43:20;101144.91;;;24.86;23.63
12913;BME280;6524;51.368;11.984;2023-04-10T08:48:25;101145.53;;;26.41;22.19
12913;BME280;6524;51.368;11.984;2023-04-10T08:53:30;101139.28;;;26.11;23.23
12913;BME280;6524;51.368;11.984;2023-04-10T08:58:31;101136.22;;;25.07;22.94
12913;BME280;6524;51.368;11.984;2023-04-10T09:03:31;101134.31;;;25.39;22.12
12913;BME280;6524;51.368;11.984;2023-04-10T09:08:33;101133.25;;;23.91;23.49
12913;BME280;6524;51.368;11.984;2023-04-10T09:13:41;101120.84;;;22.98;24.41
12913;BME280;6524;51.368;11.984;2023-04-10T09:18:46;101113.53;;;23.41;24.34
12913;BME280;6524;51.368;11.984;2023-04-10T09:23:47;101100.53;;;22.01;25.62
12913;BME280;6524;51.368;11.984;2023-04-10T09:28:56;101085.06;;;22.63;24.02
12913;BME280;6524;51.368;11.984;2023-04-10T09:34:16;101092.59;;;23.10;23.78
12913;BME280;6524;51.368;11.984;2023-04-10T09:39:16;101091.28;;;22.56;23.80
12913;BME280;6524;51.368;11.984;2023-04-10T09:44:27;101082.66;;;22.52;23.45
12913;BME280;6524;51.368;11.984;2023-04-10T09:49:44;101064.63;;;22.45;23.22
12913;BME280;6524;51.368;11.984;2023-04-10T09:54:44;101063.16;;;23.42;22.76
12913;BME280;6524;51.368;11.984;2023-04-10T09:59:49;101052.06;;;21.85;23.68
12913;BME280;6524;51.368;11.984;2023-04-10T10:04:51;101041.28;;;22.53;23.59
12913;BME280;6524;51.368;11.984;2023-04-10T10:09:52;101032.03;;;21.17;24.69
12913;BME280;6524;51.368;11.984;2023-04-10T10:20:12;101017.66;;;20.00;25.57
12913;BME280;6524;51.368;11.984;2023-04-10T10:25:17;101004.66;;;21.14;23.74
12913;BME280;6524;51.368;11.984;2023-04-10T10:30:19;101002.81;;;21.14;24.15
12913;BME280;6524;51.368;11.984;2023-04-10T10:35:20;100992.28;;;20.49;24.94
12913;BME280;6524;51.368;11.984;2023-04-10T10:40:26;100974.75;;;21.35;24.49
12913;BME280;6524;51.368;11.984;2023-04-10T10:45:41;100971.66;;;19.48;26.43
12913;BME280;6524;51.368;11.984;2023-04-10T10:50:53;100955.72;;;19.93;26.18
12913;BME280;6524;51.368;11.984;2023-04-10T10:55:57;100962.38;;;21.16;25.59
12913;BME280;6524;51.368;11.984;2023-04-10T11:06:05;100953.94;;;19.74;26.04
12913;BME280;6524;51.368;11.984;2023-04-10T11:11:08;100940.44;;;19.19;26.50
12913;BME280;6524;51.368;11.984;2023-04-10T11:16:09;100942.69;;;19.61;25.56
12913;BME280;6524;51.368;11.984;2023-04-10T11:21:21;100939.97;;;20.08;25.87
12913;BME280;6524;51.368;11.984;2023-04-10T11:31:34;100929.44;;;19.22;27.10
12913;BME280;6524;51.368;11.984;2023-04-10T11:36:40;100922.13;;;19.14;27.03
12913;BME280;6524;51.368;11.984;2023-04-10T11:41:42;100906.22;;;20.15;26.31
12913;BME280;6524;51.368;11.984;2023-04-10T11:46:44;100901.28;;;18.79;27.87
12913;BME280;6524;51.368;11.984;2023-04-10T11:51:48;100888.59;;;19.00;27.55
12913;BME280;6524;51.368;11.984;2023-04-10T11:57:02;100873.56;;;18.51;27.52
12913;BME280;6524;51.368;11.984;2023-04-10T12:02:10;100853.59;;;19.31;27.48
12913;BME280;6524;51.368;11.984;2023-04-10T12:07:13;100849.44;;;19.74;27.20
12913;BME280;6524;51.368;11.984;2023-04-10T12:12:13;100846.03;;;18.97;27.55
12913;BME280;6524;51.368;11.984;2023-04-10T12:17:15;100841.00;;;19.69;26.19
12913;BME280;6524;51.368;11.984;2023-04-10T12:22:16;100826.63;;;18.95;27.35
12913;BME280;6524;51.368;11.984;2023-04-10T12:27:21;100821.66;;;19.48;27.09
12913;BME280;6524;51.368;11.984;2023-04-10T12:32:22;100808.13;;;19.49;26.18
12913;BME280;6524;51.368;11.984;2023-04-10T12:37:55;100789.91;;;19.25;26.77
12913;BME280;6524;51.368;11.984;2023-04-10T12:42:55;100786.53;;;19.78;26.38
12913;BME280;6524;51.368;11.984;2023-04-10T12:47:55;100779.88;;;20.18;25.36
12913;BME280;6524;51.368;11.984;2023-04-10T12:53:05;100759.47;;;20.07;25.91
12913;BME280;6524;51.368;11.984;2023-04-10T12:58:17;100754.13;;;18.79;27.23
12913;BME280;6524;51.368;11.984;2023-04-10T13:03:19;100742.91;;;18.46;27.54
12913;BME280;6524;51.368;11.984;2023-04-10T13:08:20;100726.13;;;17.28;28.81
12913;BME280;6524;51.368;11.984;2023-04-10T13:13:21;100722.41;;;15.95;30.43
12913;BME280;6524;51.368;11.984;2023-04-10T13:18:21;100706.50;;;16.67;29.67
12913;BME280;6524;51.368;11.984;2023-04-10T13:23:22;100690.97;;;17.23;28.61
12913;BME280;6524;51.368;11.984;2023-04-10T13:28:22;100676.44;;;16.65;29.76
12913;BME280;6524;51.368;11.984;2023-04-10T13:33:22;100681.06;;;15.68;30.82
12913;BME280;6524;51.368;11.984;2023-04-10T13:38:24;100669.50;;;15.58;31.01
12913;BME280;6524;51.368;11.984;2023-04-10T13:43:24;100665.03;;;16.33;29.94
12913;BME280;6524;51.368;11.984;2023-04-10T13:48:24;100653.22;;;16.87;29.32
12913;BME280;6524;51.368;11.984;2023-04-10T13:53:24;100632.25;;;17.23;27.87
12913;BME280;6524;51.368;11.984;2023-04-10T13:58:25;100619.66;;;17.64;27.74
12913;BME280;6524;51.368;11.984;2023-04-10T14:03:33;100614.31;;;17.64;28.05
12913;BME280;6524;51.368;11.984;2023-04-10T14:08:33;100608.59;;;18.15;27.29
12913;BME280;6524;51.368;11.984;2023-04-10T14:13:33;100607.38;;;18.47;27.02
12913;BME280;6524;51.368;11.984;2023-04-10T14:18:35;100604.38;;;18.87;26.66
12913;BME280;6524;51.368;11.984;2023-04-10T14:23:36;100603.69;;;18.48;27.27
12913;BME280;6524;51.368;11.984;2023-04-10T14:28:36;100593.97;;;18.84;27.08
12913;BME280;6524;51.368;11.984;2023-04-10T14:33:37;100569.81;;;18.94;26.09
12913;BME280;6524;51.368;11.984;2023-04-10T14:38:37;100569.50;;;18.14;27.31
12913;BME280;6524;51.368;11.984;2023-04-10T14:43:39;100549.81;;;17.39;27.29
12913;BME280;6524;51.368;11.984;2023-04-10T14:48:39;100546.69;;;18.20;27.16
12913;BME280;6524;51.368;11.984;2023-04-10T14:53:40;100525.22;;;17.45;26.84
12913;BME280;6524;51.368;11.984;2023-04-10T14:58:40;100520.19;;;17.99;26.56
12913;BME280;6524;51.368;11.984;2023-04-10T15:03:41;100516.63;;;17.51;26.76
12913;BME280;6524;51.368;11.984;2023-04-10T15:08:45;100505.09;;;16.83;27.74
12913;BME280;6524;51.368;11.984;2023-04-10T15:13:46;100505.00;;;15.73;29.10
12913;BME280;6524;51.368;11.984;2023-04-10T15:18:47;100491.47;;;15.86;28.59
12913;BME280;6524;51.368;11.984;2023-04-10T15:23:48;100500.38;;;15.33;29.15
12913;BME280;6524;51.368;11.984;2023-04-10T15:28:48;100498.19;;;15.06;29.04
12913;BME280;6524;51.368;11.984;2023-04-10T15:33:50;100498.78;;;14.66;30.09
12913;BME280;6524;51.368;11.984;2023-04-10T15:38:51;100499.81;;;14.86;29.65
12913;BME280;6524;51.368;11.984;2023-04-10T15:43:51;100492.03;;;15.05;28.79
12913;BME280;6524;51.368;11.984;2023-04-10T15:48:51;100477.09;;;13.93;30.36
12913;BME280;6524;51.368;11.984;2023-04-10T15:53:52;100468.34;;;14.59;29.61
12913;BME280;6524;51.368;11.984;2023-04-10T15:58:53;100467.34;;;14.71;29.39
12913;BME280;6524;51.368;11.984;2023-04-10T16:03:53;100442.00;;;14.56;29.12
12913;BME280;6524;51.368;11.984;2023-04-10T16:08:54;100437.09;;;14.40;29.69
12913;BME280;6524;51.368;11.984;2023-04-10T16:13:54;100431.13;;;14.04;30.75
12913;BME280;6524;51.368;11.984;2023-04-10T16:18:55;100419.03;;;14.11;30.29
12913;BME280;6524;51.368;11.984;2023-04-10T16:23:56;100406.53;;;15.10;29.61
12913;BME280;6524;51.368;11.984;2023-04-10T16:28:57;100393.94;;;14.59;29.79
12913;BME280;6524;51.368;11.984;2023-04-10T16:33:57;100386.78;;;14.92;29.42
12913;BME280;6524;51.368;11.984;2023-04-10T16:38:58;100386.34;;;14.54;29.81
12913;BME280;6524;51.368;11.984;2023-04-10T16:43:58;100373.00;;;14.66;30.57
12913;BME280;6524;51.368;11.984;2023-04-10T16:48:58;100351.47;;;14.69;30.65
12913;BME280;6524;51.368;11.984;2023-04-10T16:54:00;100354.28;;;14.67;30.76
12913;BME280;6524;51.368;11.984;2023-04-10T16:59:01;100351.16;;;14.62;31.34
12913;BME280;6524;51.368;11.984;2023-04-10T17:04:01;100341.72;;;13.82;32.72
12913;BME280;6524;51.368;11.984;2023-04-10T17:09:02;100333.66;;;14.27;31.85
12913;BME280;6524;51.368;11.984;2023-04-10T17:14:02;100312.84;;;14.00;32.52
12913;BME280;6524;51.368;11.984;2023-04-10T17:19:02;100311.03;;;14.01;32.26
12913;BME280;6524;51.368;11.984;2023-04-10T17:24:03;100306.03;;;13.64;33.25
12913;BME280;6524;51.368;11.984;2023-04-10T17:29:03;100297.84;;;13.56;33.59
12913;BME280;6524;51.368;11.984;2023-04-10T17:34:03;100293.00;;;13.72;33.45
12913;BME280;6524;51.368;11.984;2023-04-10T17:39:04;100283.09;;;12.95;34.26
12913;BME280;6524;51.368;11.984;2023-04-10T17:44:04;100278.41;;;13.21;34.07
12913;BME280;6524;51.368;11.984;2023-04-10T17:49:05;100273.97;;;13.56;34.18
12913;BME280;6524;51.368;11.984;2023-04-10T17:54:05;100272.53;;;13.63;34.04
12913;BME280;6524;51.368;11.984;2023-04-10T17:59:05;100265.31;;;13.42;34.71
12913;BME280;6524;51.368;11.984;2023-04-10T18:04:06;100260.22;;;13.06;35.36
12913;BME280;6524;51.368;11.984;2023-04-10T18:09:06;100264.81;;;13.26;35.03
12913;BME280;6524;51.368;11.984;2023-04-10T18:14:08;100265.88;;;13.01;35.19
12913;BME280;6524;51.368;11.984;2023-04-10T18:19:08;100269.84;;;12.84;35.60
12913;BME280;6524;51.368;11.984;2023-04-10T18:24:09;100266.44;;;12.71;35.58
12913;BME280;6524;51.368;11.984;2023-04-10T18:29:13;100268.81;;;12.51;35.60
12913;BME280;6524;51.368;11.984;2023-04-10T18:34:14;100264.50;;;12.62;35.95
12913;BME280;6524;51.368;11.984;2023-04-10T18:39:14;100266.06;;;12.29;36.84
12913;BME280;6524;51.368;11.984;2023-04-10T18:44:15;100259.22;;;12.73;35.86
12913;BME280;6524;51.368;11.984;2023-04-10T18:49:15;100263.41;;;12.29;36.46
12913;BME280;6524;51.368;11.984;2023-04-10T18:54:16;100241.34;;;12.17;36.63
12913;BME280;6524;51.368;11.984;2023-04-10T18:59:16;100226.63;;;12.48;36.37
12913;BME280;6524;51.368;11.984;2023-04-10T19:04:16;100222.56;;;11.85;37.28
12913;BME280;6524;51.368;11.984;2023-04-10T19:09:17;100225.78;;;12.48;36.51
12913;BME280;6524;51.368;11.984;2023-04-10T19:14:17;100216.00;;;12.26;36.82
12913;BME280;6524;51.368;11.984;2023-04-10T19:19:18;100212.91;;;12.43;35.89
12913;BME280;6524;51.368;11.984;2023-04-10T19:24:18;100203.41;;;12.05;37.37
12913;BME280;6524;51.368;11.984;2023-04-10T19:29:18;100197.25;;;12.40;36.64
12913;BME280;6524;51.368;11.984;2023-04-10T19:34:19;100202.78;;;11.54;38.47
12913;BME280;6524;51.368;11.984;2023-04-10T19:39:19;100187.88;;;11.77;38.14
12913;BME280;6524;51.368;11.984;2023-04-10T19:44:20;100180.19;;;11.74;37.97
12913;BME280;6524;51.368;11.984;2023-04-10T19:49:20;100175.09;;;11.47;38.62
12913;BME280;6524;51.368;11.984;2023-04-10T19:54:20;100168.69;;;11.62;38.30
12913;BME280;6524;51.368;11.984;2023-04-10T19:59:21;100174.03;;;11.49;38.37
12913;BME280;6524;51.368;11.984;2023-04-10T20:04:21;100159.06;;;11.37;38.47
12913;BME280;6524;51.368;11.984;2023-04-10T20:09:22;100157.69;;;11.55;38.17
12913;BME280;6524;51.368;11.984;2023-04-10T20:14:22;100152.59;;;11.04;39.11
12913;BME280;6524;51.368;11.984;2023-04-10T20:19:23;100135.13;;;11.14;39.03
12913;BME280;6524;51.368;11.984;2023-04-10T20:24:23;100136.91;;;10.90;39.28
12913;BME280;6524;51.368;11.984;2023-04-10T20:29:24;100129.31;;;11.70;37.59
12913;BME280;6524;51.368;11.984;2023-04-10T20:34:25;100115.69;;;11.15;38.07
12913;BME280;6524;51.368;11.984;2023-04-10T20:39:25;100101.91;;;11.47;37.31
12913;BME280;6524;51.368;11.984;2023-04-10T20:44:25;100092.38;;;11.45;38.15
12913;BME280;6524;51.368;11.984;2023-04-10T20:49:26;100088.03;;;11.68;37.69
12913;BME280;6524;51.368;11.984;2023-04-10T20:54:26;100076.44;;;11.57;37.83
12913;BME280;6524;51.368;11.984;2023-04-10T20:59:28;100076.59;;;10.84;39.22
12913;BME280;6524;51.368;11.984;2023-04-10T21:04:28;100078.44;;;10.94;38.61
12913;BME280;6524;51.368;11.984;2023-04-10T21:09:29;100072.06;;;10.60;39.42
12913;BME280;6524;51.368;11.984;2023-04-10T21:14:29;100052.91;;;10.69;38.71
12913;BME280;6524;51.368;11.984;2023-04-10T21:19:30;100049.06;;;10.86;38.03
12913;BME280;6524;51.368;11.984;2023-04-10T21:24:30;100052.81;;;11.32;37.49
12913;BME280;6524;51.368;11.984;2023-04-10T21:29:30;100032.03;;;11.14;37.67
12913;BME280;6524;51.368;11.984;2023-04-10T21:34:31;100019.78;;;10.89;38.53
12913;BME280;6524;51.368;11.984;2023-04-10T21:39:31;100022.53;;;10.51;39.22
12913;BME280;6524;51.368;11.984;2023-04-10T21:44:32;100014.47;;;11.02;38.75
12913;BME280;6524;51.368;11.984;2023-04-10T21:49:32;100016.09;;;10.92;38.67
12913;BME280;6524;51.368;11.984;2023-04-10T21:54:32;100008.13;;;10.81;38.36
12913;BME280;6524;51.368;11.984;2023-04-10T21:59:33;99991.44;;;10.67;37.94
12913;BME280;6524;51.368;11.984;2023-04-10T22:04:33;99989.13;;;10.76;37.57
12913;BME280;6524;51.368;11.984;2023-04-10T22:09:33;99989.06;;;10.02;39.05
12913;BME280;6524;51.368;11.984;2023-04-10T22:14:34;99966.41;;;10.23;38.66
12913;BME280;6524;51.368;11.984;2023-04-10T22:19:34;99957.63;;;10.36;38.89
12913;BME280;6524;51.368;11.984;2023-04-10T22:24:34;99942.94;;;10.81;37.41
12913;BME280;6524;51.368;11.984;2023-04-10T22:29:35;99939.44;;;10.07;38.93
12913;BME280;6524;51.368;11.984;2023-04-10T22:34:35;99935.75;;;10.10;38.83
